createdAt,value
2022-09-15T00:01:01.306Z,2.40
2022-09-15T00:03:28.726Z,2.65
2022-09-15T00:05:55.983Z,2.80
2022-09-15T00:08:23.952Z,2.95
2022-09-15T00:10:58.714Z,1.60
2022-09-15T00:13:26.855Z,2.45
2022-09-15T00:15:53.608Z,2.13
2022-09-15T00:18:21.589Z,1.92
2022-09-15T00:20:48.426Z,2.10
2022-09-15T00:23:16.336Z,2.63
2022-09-15T00:25:50.800Z,2.90
2022-09-15T00:28:21.263Z,3.03
2022-09-15T00:30:53.657Z,2.92
2022-09-15T00:33:22.103Z,2.75
2022-09-15T00:35:50.671Z,2.42
2022-09-15T00:38:18.743Z,3.05
2022-09-15T00:40:54.292Z,3.05
2022-09-15T00:43:57.898Z,3.28
2022-09-15T00:46:41.358Z,3.15
2022-09-15T00:49:11.790Z,3.10
2022-09-15T00:52:10.710Z,3.40
2022-09-15T00:54:51.938Z,3.33
2022-09-15T00:57:26.399Z,4.10
2022-09-15T00:59:55.620Z,3.97
2022-09-15T01:02:28.941Z,3.40
2022-09-15T01:04:58.743Z,3.13
2022-09-15T01:07:37.763Z,3.55
2022-09-15T01:10:19.598Z,3.58
2022-09-15T01:12:46.207Z,4.00
2022-09-15T01:15:13.124Z,3.60
2022-09-15T01:18:00.878Z,2.90
2022-09-15T01:20:45.558Z,3.20
2022-09-15T01:23:31.267Z,3.35
2022-09-15T01:26:03.581Z,2.70
2022-09-15T01:28:33.523Z,2.85
2022-09-15T01:31:13.058Z,2.70
2022-09-15T01:34:05.261Z,2.80
2022-09-15T01:36:35.309Z,2.58
2022-09-15T01:39:21.668Z,2.90
2022-09-15T01:41:53.216Z,2.22
2022-09-15T01:44:24.870Z,2.60
2022-09-15T01:47:02.641Z,2.40
2022-09-15T01:49:47.919Z,2.03
2022-09-15T01:52:18.134Z,1.73
2022-09-15T01:54:49.323Z,1.70
2022-09-15T01:57:22.852Z,2.15
2022-09-15T01:59:50.679Z,2.30
2022-09-15T02:02:38.326Z,1.83
2022-09-15T02:05:30.449Z,2.65
2022-09-15T02:08:22.431Z,1.63
2022-09-15T02:10:59.117Z,1.50
2022-09-15T02:13:48.820Z,1.30
2022-09-15T02:16:25.031Z,1.20
2022-09-15T02:19:15.601Z,1.67
2022-09-15T02:21:54.179Z,1.42
2022-09-15T02:24:28.918Z,1.40
2022-09-15T02:26:55.626Z,1.30
2022-09-15T02:29:26.564Z,2.00
2022-09-15T02:31:56.266Z,6.75
2022-09-15T02:34:30.113Z,2.47
2022-09-15T02:36:57.093Z,2.20
2022-09-15T02:39:29.370Z,2.38
2022-09-15T02:41:56.130Z,1.75
2022-09-15T02:44:23.432Z,1.80
2022-09-15T02:46:50.291Z,1.88
2022-09-15T02:49:17.014Z,1.90
2022-09-15T02:51:43.727Z,2.40
2022-09-15T02:54:10.413Z,2.25
2022-09-15T02:56:38.032Z,2.00
2022-09-15T02:59:04.751Z,1.83
2022-09-15T03:01:35.087Z,1.88
2022-09-15T03:04:03.738Z,1.85
2022-09-15T03:06:34.803Z,2.38
2022-09-15T03:09:05.006Z,1.55
2022-09-15T03:11:31.846Z,2.88
2022-09-15T03:14:00.943Z,3.35
2022-09-15T03:16:28.954Z,2.88
2022-09-15T03:18:56.707Z,2.40
2022-09-15T03:21:24.226Z,2.00
2022-09-15T03:23:50.967Z,2.15
2022-09-15T03:26:18.418Z,2.85
2022-09-15T03:28:45.096Z,2.42
2022-09-15T03:31:11.777Z,4.10
2022-09-15T03:33:38.951Z,3.58
2022-09-15T03:36:07.083Z,3.13
2022-09-15T03:38:34.080Z,3.30
2022-09-15T03:41:10.500Z,2.92
2022-09-15T03:43:38.223Z,3.92
2022-09-15T03:46:06.551Z,3.63
2022-09-15T03:48:35.718Z,2.92
2022-09-15T03:51:06.678Z,3.20
2022-09-15T03:53:36.120Z,5.43
2022-09-15T03:56:26.191Z,4.35
2022-09-15T03:58:53.773Z,4.53
2022-09-15T04:01:21.183Z,3.75
2022-09-15T04:03:51.146Z,4.03
2022-09-15T04:06:19.861Z,4.32
2022-09-15T04:08:46.966Z,4.95
2022-09-15T04:11:13.845Z,5.65
2022-09-15T04:13:42.091Z,4.80
2022-09-15T04:16:15.108Z,6.50
2022-09-15T04:18:42.321Z,6.03
2022-09-15T04:21:20.407Z,5.10
2022-09-15T04:23:47.862Z,3.78
2022-09-15T04:26:21.355Z,5.43
2022-09-15T04:28:48.253Z,4.60
2022-09-15T04:31:17.350Z,3.83
2022-09-15T04:33:45.041Z,2.72
2022-09-15T04:36:18.258Z,6.05
2022-09-15T04:38:45.831Z,3.80
2022-09-15T04:41:14.204Z,3.20
2022-09-15T04:43:42.231Z,5.43
2022-09-15T04:46:09.620Z,6.30
2022-09-15T04:48:37.771Z,5.15
2022-09-15T04:51:07.141Z,4.15
2022-09-15T04:53:35.798Z,6.32
2022-09-15T04:56:03.837Z,3.88
2022-09-15T04:58:31.204Z,5.00
2022-09-15T05:00:58.120Z,3.95
2022-09-15T05:03:24.814Z,6.07
2022-09-15T05:05:51.529Z,8.68
2022-09-15T05:08:18.438Z,11.02
2022-09-15T05:10:45.251Z,7.55
2022-09-15T05:13:11.987Z,6.78
2022-09-15T05:15:39.123Z,6.47
2022-09-15T05:18:05.958Z,6.22
2022-09-15T05:20:32.574Z,5.15
2022-09-15T05:22:59.253Z,5.50
2022-09-15T05:25:25.945Z,6.25
2022-09-15T05:27:52.763Z,5.15
2022-09-15T05:33:06.297Z,5.07
2022-09-15T05:35:32.896Z,5.93
2022-09-15T05:37:59.571Z,5.72
2022-09-15T05:40:26.210Z,5.00
2022-09-15T05:42:53.098Z,6.57
2022-09-15T05:45:19.688Z,5.57
2022-09-15T05:47:46.943Z,5.35
2022-09-15T05:50:14.848Z,2.95
2022-09-15T05:52:41.434Z,4.18
2022-09-15T05:55:08.537Z,4.22
2022-09-15T05:57:35.251Z,3.90
2022-09-15T06:00:02.170Z,3.15
2022-09-15T06:02:29.022Z,3.30
2022-09-15T06:04:55.731Z,3.28
2022-09-15T06:07:22.471Z,3.30
2022-09-15T06:09:49.148Z,2.42
2022-09-15T06:12:18.392Z,2.08
2022-09-15T06:14:46.099Z,2.05
2022-09-15T06:17:12.647Z,3.95
2022-09-15T06:19:39.506Z,3.17
2022-09-15T06:22:06.086Z,4.50
2022-09-15T06:24:32.717Z,5.35
2022-09-15T06:26:59.334Z,4.32
2022-09-15T06:29:25.967Z,4.00
2022-09-15T06:31:52.641Z,2.17
2022-09-15T06:34:19.279Z,1.83
2022-09-15T06:36:45.827Z,1.90
2022-09-15T06:39:12.521Z,1.25
2022-09-15T06:41:58.748Z,1.30
2022-09-15T06:44:25.937Z,1.48
2022-09-15T06:46:52.972Z,1.67
2022-09-15T06:49:22.239Z,2.20
2022-09-15T06:51:49.194Z,2.60
2022-09-15T06:54:16.443Z,2.40
2022-09-15T06:56:43.911Z,3.60
2022-09-15T06:59:15.123Z,3.42
2022-09-15T07:01:42.412Z,4.22
2022-09-15T07:04:10.373Z,3.55
2022-09-15T07:06:39.042Z,4.40
2022-09-15T07:09:06.770Z,4.07
2022-09-15T07:11:33.891Z,3.50
2022-09-15T07:14:00.694Z,3.80
2022-09-15T07:16:27.875Z,3.50
2022-09-15T07:18:55.884Z,2.13
2022-09-15T07:21:23.135Z,2.35
2022-09-15T07:23:50.043Z,1.88
2022-09-15T07:26:23.110Z,2.28
2022-09-15T07:28:54.600Z,1.70
2022-09-15T07:31:24.055Z,1.73
2022-09-15T07:33:50.725Z,1.40
2022-09-15T07:36:18.008Z,1.92
2022-09-15T07:38:47.967Z,1.95
2022-09-15T07:41:20.535Z,1.98
2022-09-15T07:43:51.732Z,1.10
2022-09-15T07:46:19.323Z,1.58
2022-09-15T07:48:49.052Z,1.70
2022-09-15T07:51:17.096Z,1.10
2022-09-15T07:53:45.647Z,1.30
2022-09-15T07:56:12.911Z,0.95
2022-09-15T07:58:39.836Z,1.35
2022-09-15T08:01:11.280Z,1.42
2022-09-15T08:03:43.057Z,0.98
2022-09-15T08:06:10.456Z,1.38
2022-09-15T08:08:38.874Z,1.00
2022-09-15T08:11:09.951Z,1.35
2022-09-15T08:13:37.127Z,1.60
2022-09-15T08:16:25.355Z,1.30
2022-09-15T08:18:54.264Z,1.13
2022-09-15T08:21:21.968Z,1.08
2022-09-15T08:24:00.186Z,1.10
2022-09-15T08:26:28.074Z,1.50
2022-09-15T08:28:54.748Z,1.10
2022-09-15T08:31:21.730Z,1.05
2022-09-15T08:33:50.182Z,1.15
2022-09-15T08:36:17.173Z,1.45
2022-09-15T08:38:45.741Z,1.20
2022-09-15T08:41:26.446Z,1.50
2022-09-15T08:44:25.405Z,1.40
2022-09-15T08:47:04.896Z,2.30
2022-09-15T08:49:53.657Z,1.98
2022-09-15T08:52:30.583Z,1.33
2022-09-15T08:55:00.915Z,1.60
2022-09-15T08:57:27.918Z,1.55
2022-09-15T08:59:56.267Z,1.45
2022-09-15T09:02:41.709Z,1.98
2022-09-15T09:05:11.526Z,1.63
2022-09-15T09:07:56.872Z,1.25
2022-09-15T09:10:43.183Z,1.40
2022-09-15T09:13:30.933Z,1.80
2022-09-15T09:16:33.738Z,1.25
2022-09-15T09:19:12.381Z,1.40
2022-09-15T09:21:43.286Z,1.35
2022-09-15T09:24:19.283Z,1.50
2022-09-15T09:26:50.586Z,1.50
2022-09-15T09:29:19.979Z,1.52
2022-09-15T09:31:49.491Z,1.30
2022-09-15T09:34:31.323Z,1.13
2022-09-15T09:37:00.598Z,1.08
2022-09-15T09:39:28.403Z,1.40
2022-09-15T09:41:55.804Z,1.40
2022-09-15T09:44:31.938Z,1.23
2022-09-15T09:47:00.660Z,1.35
2022-09-15T09:49:37.863Z,1.48
2022-09-15T09:52:05.037Z,1.50
2022-09-15T09:54:33.927Z,1.50
2022-09-15T09:57:40.540Z,1.40
2022-09-15T10:00:33.780Z,1.40
2022-09-15T10:03:20.375Z,1.45
2022-09-15T10:06:03.807Z,1.75
2022-09-15T10:08:30.892Z,1.05
2022-09-15T10:11:04.806Z,1.10
2022-09-15T10:13:32.890Z,1.50
2022-09-15T10:16:02.730Z,1.15
2022-09-15T10:18:35.406Z,1.13
2022-09-15T10:21:05.881Z,1.45
2022-09-15T10:23:34.143Z,1.70
2022-09-15T10:26:15.565Z,1.42
2022-09-15T10:28:43.382Z,1.48
2022-09-15T10:31:28.863Z,1.00
2022-09-15T10:33:55.875Z,1.30
2022-09-15T10:36:32.362Z,1.55
2022-09-15T10:39:01.685Z,1.10
2022-09-15T10:41:31.198Z,2.42
2022-09-15T10:44:13.097Z,1.15
2022-09-15T10:46:55.551Z,0.90
2022-09-15T10:49:24.864Z,1.17
2022-09-15T10:52:13.379Z,1.10
2022-09-15T10:55:07.619Z,0.70
2022-09-15T10:57:53.301Z,0.60
2022-09-15T11:00:25.859Z,0.80
2022-09-15T11:03:05.638Z,0.73
2022-09-15T11:05:41.621Z,0.63
2022-09-15T11:08:34.175Z,0.63
2022-09-15T11:11:18.934Z,0.50
2022-09-15T11:14:30.117Z,0.60
2022-09-15T11:17:14.952Z,0.60
2022-09-15T11:20:12.560Z,0.60
2022-09-15T11:23:04.127Z,0.88
2022-09-15T11:25:35.642Z,0.80
2022-09-15T11:28:11.714Z,0.88
2022-09-15T11:30:47.615Z,1.23
2022-09-15T11:33:27.453Z,1.00
2022-09-15T11:36:00.592Z,0.40
2022-09-15T11:38:38.811Z,0.60
2022-09-15T11:41:24.217Z,0.60
2022-09-15T11:43:53.684Z,0.52
2022-09-15T11:46:50.682Z,0.70
2022-09-15T11:49:26.450Z,0.50
2022-09-15T11:52:11.323Z,0.50
2022-09-15T11:54:45.223Z,0.50
2022-09-15T11:57:20.100Z,0.40
2022-09-15T12:00:10.289Z,0.75
2022-09-15T12:03:13.613Z,0.90
2022-09-15T12:06:04.582Z,0.45
2022-09-15T12:08:41.972Z,0.90
2022-09-15T12:11:18.062Z,0.70
2022-09-15T12:13:45.719Z,0.50
2022-09-15T12:16:12.893Z,0.50
2022-09-15T12:18:59.737Z,0.55
2022-09-15T12:21:39.000Z,0.60
2022-09-15T12:24:38.879Z,0.60
2022-09-15T12:27:05.549Z,0.68
2022-09-15T12:29:42.041Z,0.60
2022-09-15T12:32:27.043Z,0.50
2022-09-15T12:35:07.935Z,0.50
2022-09-15T12:37:45.592Z,0.70
2022-09-15T12:40:30.692Z,0.55
2022-09-15T12:42:57.683Z,0.73
2022-09-15T12:45:36.702Z,0.60
2022-09-15T12:48:06.428Z,0.50
2022-09-15T12:50:37.626Z,0.60
2022-09-15T12:53:15.219Z,0.60
2022-09-15T12:55:56.171Z,0.60
2022-09-15T12:58:33.287Z,0.50
2022-09-15T13:01:30.931Z,0.80
2022-09-15T13:04:00.687Z,1.10
2022-09-15T13:06:29.112Z,1.00
2022-09-15T13:09:25.948Z,0.70
2022-09-15T13:11:56.295Z,0.60
2022-09-15T13:14:32.774Z,0.70
2022-09-15T13:17:03.226Z,0.60
2022-09-15T13:19:41.354Z,0.70
2022-09-15T13:22:10.851Z,0.50
2022-09-15T13:24:44.017Z,0.82
2022-09-15T13:27:12.299Z,0.65
2022-09-15T13:30:24.195Z,0.70
2022-09-15T13:33:18.042Z,0.73
2022-09-15T13:38:03.275Z,0.65
2022-09-15T13:39:42.156Z,0.60
2022-09-15T13:42:32.068Z,0.57
2022-09-15T13:45:44.002Z,0.60
2022-09-15T13:48:38.333Z,0.60
2022-09-15T13:51:16.650Z,2.25
2022-09-15T13:53:57.825Z,1.13
2022-09-15T13:56:35.687Z,0.93
2022-09-15T13:59:11.900Z,0.70
2022-09-15T14:01:42.517Z,0.80
2022-09-15T14:04:19.671Z,0.80
2022-09-15T14:06:50.057Z,0.55
2022-09-15T14:09:21.798Z,0.82
2022-09-15T14:11:52.326Z,0.50
2022-09-15T14:14:28.396Z,0.50
2022-09-15T14:16:56.925Z,0.47
2022-09-15T14:19:38.968Z,0.40
2022-09-15T14:22:17.892Z,0.45
2022-09-15T14:24:44.848Z,0.60
2022-09-15T14:27:13.172Z,0.40
2022-09-15T14:29:42.836Z,0.57
2022-09-15T14:32:15.076Z,0.50
2022-09-15T14:34:42.699Z,0.57
2022-09-15T14:37:22.126Z,0.50
2022-09-15T14:39:56.702Z,0.88
2022-09-15T14:42:34.036Z,0.60
2022-09-15T14:48:16.218Z,0.52
2022-09-15T14:50:52.817Z,0.50
2022-09-15T14:53:25.829Z,0.50
2022-09-15T14:55:55.651Z,0.50
2022-09-15T14:58:32.613Z,0.38
2022-09-15T15:01:04.805Z,0.40
2022-09-15T15:03:41.272Z,0.50
2022-09-15T15:06:34.589Z,0.40
2022-09-15T15:09:21.623Z,0.60
2022-09-15T15:11:57.647Z,0.50
2022-09-15T15:14:24.455Z,0.47
2022-09-15T15:17:08.261Z,0.52
2022-09-15T15:19:40.875Z,0.60
2022-09-15T15:22:13.310Z,0.60
2022-09-15T15:24:43.057Z,0.50
2022-09-15T15:27:34.394Z,0.60
2022-09-15T15:30:23.877Z,0.40
2022-09-15T15:32:51.066Z,0.70
2022-09-15T15:35:20.463Z,0.60
2022-09-15T15:38:01.895Z,0.52
2022-09-15T15:40:29.240Z,0.73
2022-09-15T15:43:01.391Z,0.60
2022-09-15T15:45:47.499Z,0.50
2022-09-15T15:48:14.499Z,0.80
2022-09-15T15:50:41.089Z,0.70
2022-09-15T15:53:07.727Z,0.50
2022-09-15T15:55:41.037Z,0.50
2022-09-15T15:58:10.457Z,0.50
2022-09-15T16:00:44.313Z,1.08
2022-09-15T16:03:12.668Z,0.85
2022-09-15T16:05:41.979Z,0.65
2022-09-15T16:08:38.276Z,0.50
2022-09-15T16:11:08.269Z,0.52
2022-09-15T16:13:35.246Z,0.73
2022-09-15T16:16:02.742Z,0.52
2022-09-15T16:18:29.886Z,0.80
2022-09-15T16:20:56.517Z,0.80
2022-09-15T16:23:23.717Z,0.70
2022-09-15T16:25:59.572Z,0.60
2022-09-15T16:28:26.774Z,0.50
2022-09-15T16:30:53.419Z,0.65
2022-09-15T16:33:21.328Z,0.63
2022-09-15T16:35:55.724Z,0.50
2022-09-15T16:38:25.960Z,0.50
2022-09-15T16:40:53.205Z,0.50
2022-09-15T16:43:21.958Z,0.50
2022-09-15T16:45:49.520Z,0.60
2022-09-15T16:48:16.786Z,0.80
2022-09-15T16:53:31.443Z,0.50
2022-09-15T16:55:59.138Z,0.50
2022-09-15T16:58:25.918Z,0.88
2022-09-15T17:00:53.695Z,0.90
2022-09-15T17:03:23.941Z,1.02
2022-09-15T17:05:52.729Z,1.05
2022-09-15T17:08:22.270Z,1.85
2022-09-15T17:10:49.727Z,0.93
2022-09-15T17:13:18.618Z,1.25
2022-09-15T17:15:46.202Z,2.85
2022-09-15T17:18:15.620Z,0.82
2022-09-15T17:20:44.075Z,0.70
2022-09-15T17:23:18.857Z,1.10
2022-09-15T17:25:52.160Z,1.08
2022-09-15T17:28:23.778Z,1.02
2022-09-15T17:30:52.248Z,1.13
2022-09-15T17:33:20.388Z,1.25
2022-09-15T17:35:48.035Z,0.80
2022-09-15T17:38:16.566Z,1.58
2022-09-15T17:40:43.235Z,1.55
2022-09-15T17:43:16.057Z,0.98
2022-09-15T17:45:43.203Z,0.70
2022-09-15T17:48:10.167Z,0.88
2022-09-15T17:50:38.301Z,1.38
2022-09-15T17:53:16.385Z,1.80
2022-09-15T17:55:43.441Z,1.30
2022-09-15T17:58:10.414Z,1.05
2022-09-15T18:00:39.483Z,1.25
2022-09-15T18:03:21.770Z,1.63
2022-09-15T18:05:48.667Z,1.00
2022-09-15T18:08:16.516Z,2.30
2022-09-15T18:10:43.815Z,1.70
2022-09-15T18:13:17.343Z,1.40
2022-09-15T18:15:44.243Z,1.52
2022-09-15T18:18:14.759Z,2.00
2022-09-15T18:20:41.985Z,1.15
2022-09-15T18:23:13.444Z,1.13
2022-09-15T18:25:40.488Z,2.33
2022-09-15T18:28:07.324Z,2.83
2022-09-15T18:30:38.415Z,2.78
2022-09-15T18:33:05.131Z,1.73
2022-09-15T18:35:31.716Z,1.95
2022-09-15T18:38:00.245Z,2.70
2022-09-15T18:40:28.366Z,2.30
2022-09-15T18:42:56.604Z,2.05
2022-09-15T18:45:23.302Z,3.22
2022-09-15T18:47:51.925Z,1.73
2022-09-15T18:50:21.590Z,1.50
2022-09-15T18:52:49.210Z,3.72
2022-09-15T18:55:18.991Z,1.75
2022-09-15T18:57:46.097Z,4.40
2022-09-15T19:00:16.153Z,2.22
2022-09-15T19:02:43.709Z,3.17
2022-09-15T19:05:12.176Z,3.88
2022-09-15T19:07:39.141Z,3.50
2022-09-15T19:10:07.414Z,5.10
2022-09-15T19:12:36.004Z,5.03
2022-09-15T19:15:04.223Z,4.82
2022-09-15T19:17:31.254Z,4.40
2022-09-15T19:20:00.369Z,2.63
2022-09-15T19:22:30.008Z,2.78
2022-09-15T19:24:56.670Z,1.80
2022-09-15T19:27:23.436Z,1.75
2022-09-15T19:29:50.184Z,1.95
2022-09-15T19:32:18.388Z,1.98
2022-09-15T19:34:47.076Z,2.10
2022-09-15T19:37:18.795Z,3.05
2022-09-15T19:39:46.690Z,2.22
2022-09-15T19:42:16.977Z,2.53
2022-09-15T19:44:44.154Z,2.20
2022-09-15T19:47:11.102Z,1.70
2022-09-15T19:49:37.737Z,2.67
2022-09-15T19:52:06.484Z,2.30
2022-09-15T19:54:34.484Z,1.42
2022-09-15T19:57:01.953Z,1.05
2022-09-15T19:59:31.638Z,1.55
2022-09-15T20:01:59.612Z,1.08
2022-09-15T20:04:26.835Z,0.80
2022-09-15T20:06:53.530Z,0.60
2022-09-15T20:09:20.165Z,0.80
2022-09-15T20:11:46.850Z,1.02
2022-09-15T20:14:13.890Z,1.27
2022-09-15T20:16:40.591Z,0.70
2022-09-15T20:19:07.235Z,0.80
2022-09-15T20:21:52.021Z,1.25
2022-09-15T20:24:20.137Z,1.00
2022-09-15T20:26:47.951Z,1.45
2022-09-15T20:29:14.522Z,2.05
2022-09-15T20:31:42.522Z,2.38
2022-09-15T20:34:09.078Z,2.70
2022-09-15T20:36:38.413Z,1.35
2022-09-15T20:39:09.429Z,1.50
2022-09-15T20:41:36.992Z,1.48
2022-09-15T20:44:05.194Z,1.77
2022-09-15T20:46:31.818Z,1.15
2022-09-15T20:48:58.539Z,1.05
2022-09-15T20:51:28.192Z,0.98
2022-09-15T20:53:56.457Z,1.05
2022-09-15T20:56:26.375Z,0.80
2022-09-15T20:58:54.948Z,1.00
2022-09-15T21:01:24.360Z,0.85
2022-09-15T21:03:51.607Z,1.10
2022-09-15T21:06:20.775Z,1.10
2022-09-15T21:08:50.133Z,0.88
2022-09-15T21:11:18.564Z,0.73
2022-09-15T21:13:45.942Z,0.70
2022-09-15T21:16:15.980Z,0.75
2022-09-15T21:18:43.997Z,0.65
2022-09-15T21:21:17.733Z,1.08
2022-09-15T21:23:47.347Z,1.10
2022-09-15T21:26:18.345Z,1.00
2022-09-15T21:28:45.754Z,1.00
2022-09-15T21:31:20.567Z,0.80
2022-09-15T21:33:48.623Z,0.80
2022-09-15T21:36:24.603Z,1.02
2022-09-15T21:38:53.435Z,1.20
2022-09-15T21:41:23.164Z,0.88
2022-09-15T21:43:58.449Z,1.02
2022-09-15T21:46:27.801Z,0.93
2022-09-15T21:48:57.669Z,0.98
2022-09-15T21:51:25.963Z,0.82
2022-09-15T21:53:54.357Z,0.77
2022-09-15T21:56:21.998Z,1.20
2022-09-15T21:58:48.959Z,0.80
2022-09-15T22:01:16.175Z,1.30
2022-09-15T22:03:43.563Z,1.00
2022-09-15T22:06:13.467Z,1.10
2022-09-15T22:08:40.564Z,0.73
2022-09-15T22:11:08.376Z,0.88
2022-09-15T22:13:43.591Z,0.90
2022-09-15T22:16:21.956Z,0.75
2022-09-15T22:18:49.390Z,0.82
2022-09-15T22:21:27.969Z,0.80
2022-09-15T22:23:57.031Z,0.68
2022-09-15T22:26:26.418Z,0.80
2022-09-15T22:28:53.661Z,1.05
2022-09-15T22:31:21.769Z,0.98
2022-09-15T22:33:48.581Z,0.77
2022-09-15T22:36:18.417Z,0.80
2022-09-15T22:38:45.596Z,0.70
2022-09-15T22:41:14.382Z,0.63
2022-09-15T22:43:42.580Z,0.70
2022-09-15T22:46:09.537Z,0.70
2022-09-15T22:48:39.734Z,0.60
2022-09-15T22:51:09.268Z,0.70
2022-09-15T22:53:35.874Z,0.70
2022-09-15T22:56:10.820Z,0.60
2022-09-15T22:58:37.784Z,0.73
2022-09-15T23:01:11.211Z,0.77
2022-09-15T23:03:38.455Z,0.60
2022-09-15T23:06:05.952Z,0.60
2022-09-15T23:08:32.935Z,0.70
2022-09-15T23:11:07.244Z,0.60
2022-09-15T23:13:34.244Z,0.50
2022-09-15T23:16:01.666Z,0.60
2022-09-15T23:18:29.294Z,0.50
2022-09-15T23:21:07.578Z,0.60
2022-09-15T23:23:39.540Z,0.80
2022-09-15T23:26:08.090Z,0.80
2022-09-15T23:28:35.141Z,0.52
2022-09-15T23:31:01.954Z,0.80
2022-09-15T23:33:31.557Z,0.70
2022-09-15T23:36:07.341Z,0.40
2022-09-15T23:38:38.660Z,0.50
2022-09-15T23:41:06.411Z,0.63
2022-09-15T23:43:33.504Z,0.50
2022-09-15T23:46:00.876Z,0.60
2022-09-15T23:48:27.756Z,0.80
2022-09-15T23:50:54.459Z,0.50
2022-09-15T23:53:21.192Z,0.55
2022-09-15T23:55:47.755Z,0.50
2022-09-15T23:58:14.440Z,0.60
